sensor_id;sensor_type;location;lat;lon;timestamp;P1;durP1;ratioP1;P2;durP2;ratioP2
38053;SDS011;23859;50.672;7.164;2022-12-04T00:01:52;35.28;;;13.18;;
38053;SDS011;23859;50.672;7.164;2022-12-04T00:04:18;28.65;;;12.98;;
38053;SDS011;23859;50.672;7.164;2022-12-04T00:06:44;31.25;;;14.30;;
38053;SDS011;23859;50.672;7.164;2022-12-04T00:09:10;24.52;;;12.27;;
38053;SDS011;23859;50.672;7.164;2022-12-04T00:11:36;31.45;;;14.27;;
38053;SDS011;23859;50.672;7.164;2022-12-04T00:14:03;31.00;;;14.95;;
38053;SDS011;23859;50.672;7.164;2022-12-04T00:16:29;28.13;;;13.45;;
38053;SDS011;23859;50.672;7.164;2022-12-04T00:18:56;25.70;;;12.13;;
38053;SDS011;23859;50.672;7.164;2022-12-04T00:21:23;25.75;;;12.95;;
38053;SDS011;23859;50.672;7.164;2022-12-04T00:23:50;25.95;;;13.18;;
38053;SDS011;23859;50.672;7.164;2022-12-04T00:26:19;31.48;;;14.57;;
38053;SDS011;23859;50.672;7.164;2022-12-04T00:28:47;26.40;;;12.93;;
38053;SDS011;23859;50.672;7.164;2022-12-04T00:31:15;25.13;;;12.98;;
38053;SDS011;23859;50.672;7.164;2022-12-04T00:33:43;24.50;;;13.23;;
38053;SDS011;23859;50.672;7.164;2022-12-04T00:36:11;22.90;;;11.10;;
38053;SDS011;23859;50.672;7.164;2022-12-04T00:38:38;27.92;;;13.13;;
38053;SDS011;23859;50.672;7.164;2022-12-04T00:41:04;27.17;;;12.27;;
38053;SDS011;23859;50.672;7.164;2022-12-04T00:43:33;27.65;;;12.95;;
38053;SDS011;23859;50.672;7.164;2022-12-04T00:46:00;25.08;;;12.27;;
38053;SDS011;23859;50.672;7.164;2022-12-04T00:48:26;29.35;;;13.90;;
38053;SDS011;23859;50.672;7.164;2022-12-04T00:50:52;24.88;;;11.80;;
38053;SDS011;23859;50.672;7.164;2022-12-04T00:53:19;24.58;;;13.40;;
38053;SDS011;23859;50.672;7.164;2022-12-04T00:55:45;26.55;;;12.77;;
38053;SDS011;23859;50.672;7.164;2022-12-04T00:58:12;29.95;;;14.13;;
38053;SDS011;23859;50.672;7.164;2022-12-04T01:00:39;30.85;;;13.35;;
38053;SDS011;23859;50.672;7.164;2022-12-04T01:03:07;28.88;;;12.70;;
38053;SDS011;23859;50.672;7.164;2022-12-04T01:05:37;22.63;;;11.30;;
38053;SDS011;23859;50.672;7.164;2022-12-04T01:08:07;25.77;;;12.02;;
38053;SDS011;23859;50.672;7.164;2022-12-04T01:10:36;26.17;;;12.55;;
38053;SDS011;23859;50.672;7.164;2022-12-04T01:13:03;27.67;;;13.00;;
38053;SDS011;23859;50.672;7.164;2022-12-04T01:15:29;28.10;;;12.65;;
38053;SDS011;23859;50.672;7.164;2022-12-04T01:17:55;25.48;;;12.50;;
38053;SDS011;23859;50.672;7.164;2022-12-04T01:20:22;27.50;;;11.93;;
38053;SDS011;23859;50.672;7.164;2022-12-04T01:22:48;26.63;;;11.88;;
38053;SDS011;23859;50.672;7.164;2022-12-04T01:25:14;23.98;;;11.43;;
38053;SDS011;23859;50.672;7.164;2022-12-04T01:27:40;25.20;;;12.05;;
38053;SDS011;23859;50.672;7.164;2022-12-04T01:30:06;24.48;;;11.77;;
38053;SDS011;23859;50.672;7.164;2022-12-04T01:32:32;28.52;;;13.70;;
38053;SDS011;23859;50.672;7.164;2022-12-04T01:34:58;23.38;;;11.80;;
38053;SDS011;23859;50.672;7.164;2022-12-04T01:37:24;26.02;;;13.02;;
38053;SDS011;23859;50.672;7.164;2022-12-04T01:39:50;25.50;;;11.93;;
38053;SDS011;23859;50.672;7.164;2022-12-04T01:42:16;22.48;;;11.02;;
38053;SDS011;23859;50.672;7.164;2022-12-04T01:44:43;27.10;;;12.80;;
38053;SDS011;23859;50.672;7.164;2022-12-04T01:47:47;22.48;;;12.45;;
38053;SDS011;23859;50.672;7.164;2022-12-04T01:50:13;25.05;;;12.35;;
38053;SDS011;23859;50.672;7.164;2022-12-04T01:52:40;24.60;;;12.00;;
38053;SDS011;23859;50.672;7.164;2022-12-04T01:55:06;29.80;;;12.68;;
38053;SDS011;23859;50.672;7.164;2022-12-04T01:57:32;25.15;;;11.00;;
38053;SDS011;23859;50.672;7.164;2022-12-04T02:00:10;20.20;;;10.73;;
38053;SDS011;23859;50.672;7.164;2022-12-04T02:02:39;23.00;;;11.65;;
38053;SDS011;23859;50.672;7.164;2022-12-04T02:05:09;21.10;;;10.50;;
38053;SDS011;23859;50.672;7.164;2022-12-04T02:07:38;19.83;;;10.30;;
38053;SDS011;23859;50.672;7.164;2022-12-04T02:10:06;21.30;;;11.10;;
38053;SDS011;23859;50.672;7.164;2022-12-04T02:12:45;20.08;;;10.00;;
38053;SDS011;23859;50.672;7.164;2022-12-04T02:20:59;20.70;;;9.65;;
38053;SDS011;23859;50.672;7.164;2022-12-04T02:26:18;18.75;;;8.73;;
38053;SDS011;23859;50.672;7.164;2022-12-04T02:31:39;18.40;;;8.93;;
38053;SDS011;23859;50.672;7.164;2022-12-04T02:34:17;22.63;;;10.88;;
38053;SDS011;23859;50.672;7.164;2022-12-04T02:37:04;16.30;;;8.90;;
38053;SDS011;23859;50.672;7.164;2022-12-04T02:39:37;22.38;;;10.02;;
38053;SDS011;23859;50.672;7.164;2022-12-04T02:42:10;18.00;;;9.38;;
38053;SDS011;23859;50.672;7.164;2022-12-04T02:44:41;17.67;;;9.37;;
38053;SDS011;23859;50.672;7.164;2022-12-04T02:47:10;15.85;;;9.35;;
38053;SDS011;23859;50.672;7.164;2022-12-04T02:49:50;20.63;;;9.60;;
38053;SDS011;23859;50.672;7.164;2022-12-04T02:52:21;17.27;;;9.70;;
38053;SDS011;23859;50.672;7.164;2022-12-04T02:54:56;18.42;;;9.70;;
38053;SDS011;23859;50.672;7.164;2022-12-04T02:57:27;19.05;;;9.55;;
38053;SDS011;23859;50.672;7.164;2022-12-04T02:59:58;19.83;;;9.60;;
38053;SDS011;23859;50.672;7.164;2022-12-04T03:05:04;20.27;;;9.38;;
38053;SDS011;23859;50.672;7.164;2022-12-04T03:07:38;14.90;;;9.48;;
38053;SDS011;23859;50.672;7.164;2022-12-04T03:10:09;18.58;;;10.00;;
38053;SDS011;23859;50.672;7.164;2022-12-04T03:12:47;18.98;;;10.23;;
38053;SDS011;23859;50.672;7.164;2022-12-04T03:15:23;16.95;;;8.82;;
38053;SDS011;23859;50.672;7.164;2022-12-04T03:20:29;20.35;;;9.77;;
38053;SDS011;23859;50.672;7.164;2022-12-04T03:23:00;16.80;;;9.77;;
38053;SDS011;23859;50.672;7.164;2022-12-04T03:25:37;17.75;;;9.43;;
38053;SDS011;23859;50.672;7.164;2022-12-04T03:28:19;19.20;;;10.50;;
38053;SDS011;23859;50.672;7.164;2022-12-04T03:30:56;18.35;;;8.98;;
38053;SDS011;23859;50.672;7.164;2022-12-04T03:33:28;20.92;;;10.65;;
38053;SDS011;23859;50.672;7.164;2022-12-04T03:36:11;21.33;;;11.07;;
38053;SDS011;23859;50.672;7.164;2022-12-04T03:47:00;14.98;;;9.35;;
38053;SDS011;23859;50.672;7.164;2022-12-04T03:49:47;20.20;;;10.32;;
38053;SDS011;23859;50.672;7.164;2022-12-04T03:55:12;21.93;;;10.90;;
38053;SDS011;23859;50.672;7.164;2022-12-04T04:00:15;19.55;;;8.98;;
38053;SDS011;23859;50.672;7.164;2022-12-04T04:05:25;24.55;;;10.35;;
38053;SDS011;23859;50.672;7.164;2022-12-04T04:08:02;21.38;;;9.93;;
38053;SDS011;23859;50.672;7.164;2022-12-04T04:10:50;18.55;;;10.18;;
38053;SDS011;23859;50.672;7.164;2022-12-04T04:13:32;23.65;;;11.57;;
38053;SDS011;23859;50.672;7.164;2022-12-04T04:16:24;21.70;;;10.83;;
38053;SDS011;23859;50.672;7.164;2022-12-04T04:19:17;21.92;;;9.88;;
38053;SDS011;23859;50.672;7.164;2022-12-04T04:22:05;23.20;;;11.50;;
38053;SDS011;23859;50.672;7.164;2022-12-04T04:24:54;17.40;;;9.93;;
38053;SDS011;23859;50.672;7.164;2022-12-04T04:27:26;19.40;;;10.20;;
38053;SDS011;23859;50.672;7.164;2022-12-04T04:29:52;21.38;;;10.18;;
38053;SDS011;23859;50.672;7.164;2022-12-04T04:35:49;19.80;;;9.88;;
38053;SDS011;23859;50.672;7.164;2022-12-04T04:38:17;17.77;;;10.32;;
38053;SDS011;23859;50.672;7.164;2022-12-04T04:43:38;18.75;;;10.50;;
38053;SDS011;23859;50.672;7.164;2022-12-04T04:46:16;21.08;;;10.52;;
38053;SDS011;23859;50.672;7.164;2022-12-04T04:48:59;20.15;;;11.45;;
38053;SDS011;23859;50.672;7.164;2022-12-04T04:51:29;20.92;;;10.65;;
38053;SDS011;23859;50.672;7.164;2022-12-04T04:53:58;18.35;;;9.90;;
38053;SDS011;23859;50.672;7.164;2022-12-04T04:56:28;19.25;;;10.00;;
38053;SDS011;23859;50.672;7.164;2022-12-04T04:58:55;20.45;;;10.27;;
38053;SDS011;23859;50.672;7.164;2022-12-04T05:01:21;19.27;;;9.60;;
38053;SDS011;23859;50.672;7.164;2022-12-04T05:03:51;21.70;;;11.30;;
38053;SDS011;23859;50.672;7.164;2022-12-04T05:06:17;20.95;;;11.13;;
38053;SDS011;23859;50.672;7.164;2022-12-04T05:08:44;21.45;;;10.48;;
38053;SDS011;23859;50.672;7.164;2022-12-04T05:11:13;19.35;;;10.02;;
38053;SDS011;23859;50.672;7.164;2022-12-04T05:13:41;23.40;;;12.00;;
38053;SDS011;23859;50.672;7.164;2022-12-04T05:16:09;19.75;;;9.85;;
38053;SDS011;23859;50.672;7.164;2022-12-04T05:18:37;17.15;;;9.35;;
38053;SDS011;23859;50.672;7.164;2022-12-04T05:21:04;18.50;;;9.30;;
38053;SDS011;23859;50.672;7.164;2022-12-04T05:23:32;16.50;;;9.05;;
38053;SDS011;23859;50.672;7.164;2022-12-04T05:26:02;20.58;;;9.40;;
38053;SDS011;23859;50.672;7.164;2022-12-04T05:28:29;18.65;;;8.95;;
38053;SDS011;23859;50.672;7.164;2022-12-04T05:30:56;17.70;;;9.23;;
38053;SDS011;23859;50.672;7.164;2022-12-04T05:33:23;21.77;;;11.00;;
38053;SDS011;23859;50.672;7.164;2022-12-04T05:35:58;19.15;;;10.02;;
38053;SDS011;23859;50.672;7.164;2022-12-04T05:38:29;20.77;;;9.65;;
38053;SDS011;23859;50.672;7.164;2022-12-04T05:40:56;22.45;;;11.70;;
38053;SDS011;23859;50.672;7.164;2022-12-04T05:43:23;21.73;;;11.13;;
38053;SDS011;23859;50.672;7.164;2022-12-04T05:45:49;19.55;;;10.40;;
38053;SDS011;23859;50.672;7.164;2022-12-04T05:48:16;22.70;;;11.38;;
38053;SDS011;23859;50.672;7.164;2022-12-04T05:50:42;21.27;;;11.32;;
38053;SDS011;23859;50.672;7.164;2022-12-04T05:53:08;19.95;;;10.02;;
38053;SDS011;23859;50.672;7.164;2022-12-04T05:55:34;22.98;;;11.27;;
38053;SDS011;23859;50.672;7.164;2022-12-04T05:58:00;18.55;;;8.95;;
38053;SDS011;23859;50.672;7.164;2022-12-04T06:00:27;19.88;;;9.80;;
38053;SDS011;23859;50.672;7.164;2022-12-04T06:02:54;19.90;;;10.02;;
38053;SDS011;23859;50.672;7.164;2022-12-04T06:05:20;22.55;;;10.75;;
38053;SDS011;23859;50.672;7.164;2022-12-04T06:07:46;20.08;;;10.25;;
38053;SDS011;23859;50.672;7.164;2022-12-04T06:10:12;19.67;;;10.25;;
38053;SDS011;23859;50.672;7.164;2022-12-04T06:12:38;21.48;;;11.05;;
38053;SDS011;23859;50.672;7.164;2022-12-04T06:15:04;23.45;;;10.75;;
38053;SDS011;23859;50.672;7.164;2022-12-04T06:17:30;20.63;;;11.88;;
38053;SDS011;23859;50.672;7.164;2022-12-04T06:19:56;22.38;;;10.60;;
38053;SDS011;23859;50.672;7.164;2022-12-04T06:22:23;24.02;;;10.48;;
38053;SDS011;23859;50.672;7.164;2022-12-04T06:24:50;20.20;;;10.98;;
38053;SDS011;23859;50.672;7.164;2022-12-04T06:27:16;20.02;;;9.55;;
38053;SDS011;23859;50.672;7.164;2022-12-04T06:29:42;26.48;;;11.43;;
38053;SDS011;23859;50.672;7.164;2022-12-04T06:32:08;21.48;;;10.43;;
38053;SDS011;23859;50.672;7.164;2022-12-04T06:34:34;21.27;;;10.98;;
38053;SDS011;23859;50.672;7.164;2022-12-04T06:37:00;20.20;;;10.48;;
38053;SDS011;23859;50.672;7.164;2022-12-04T06:39:27;18.23;;;10.07;;
38053;SDS011;23859;50.672;7.164;2022-12-04T06:41:53;22.20;;;10.77;;
38053;SDS011;23859;50.672;7.164;2022-12-04T06:44:19;23.15;;;11.35;;
38053;SDS011;23859;50.672;7.164;2022-12-04T06:46:45;21.33;;;10.00;;
38053;SDS011;23859;50.672;7.164;2022-12-04T06:49:12;23.65;;;10.43;;
38053;SDS011;23859;50.672;7.164;2022-12-04T06:51:38;26.33;;;10.95;;
38053;SDS011;23859;50.672;7.164;2022-12-04T06:54:05;21.27;;;10.45;;
38053;SDS011;23859;50.672;7.164;2022-12-04T06:56:31;20.30;;;10.00;;
38053;SDS011;23859;50.672;7.164;2022-12-04T06:58:59;23.50;;;11.90;;
38053;SDS011;23859;50.672;7.164;2022-12-04T07:01:27;21.95;;;10.80;;
38053;SDS011;23859;50.672;7.164;2022-12-04T07:03:55;27.38;;;12.25;;
38053;SDS011;23859;50.672;7.164;2022-12-04T07:06:23;23.85;;;11.77;;
38053;SDS011;23859;50.672;7.164;2022-12-04T07:08:56;23.30;;;11.57;;
38053;SDS011;23859;50.672;7.164;2022-12-04T07:11:23;20.50;;;11.35;;
38053;SDS011;23859;50.672;7.164;2022-12-04T07:13:50;24.13;;;11.35;;
38053;SDS011;23859;50.672;7.164;2022-12-04T07:16:18;23.80;;;11.40;;
38053;SDS011;23859;50.672;7.164;2022-12-04T07:18:45;25.25;;;11.63;;
38053;SDS011;23859;50.672;7.164;2022-12-04T07:21:16;23.95;;;11.55;;
38053;SDS011;23859;50.672;7.164;2022-12-04T07:23:43;23.23;;;12.13;;
38053;SDS011;23859;50.672;7.164;2022-12-04T07:26:13;22.65;;;11.38;;
38053;SDS011;23859;50.672;7.164;2022-12-04T07:28:39;22.52;;;12.18;;
38053;SDS011;23859;50.672;7.164;2022-12-04T07:31:06;22.92;;;11.73;;
38053;SDS011;23859;50.672;7.164;2022-12-04T07:33:34;25.10;;;12.20;;
38053;SDS011;23859;50.672;7.164;2022-12-04T07:36:02;23.80;;;11.20;;
38053;SDS011;23859;50.672;7.164;2022-12-04T07:38:29;23.98;;;11.65;;
38053;SDS011;23859;50.672;7.164;2022-12-04T07:40:57;26.02;;;13.43;;
38053;SDS011;23859;50.672;7.164;2022-12-04T07:43:24;21.58;;;11.63;;
38053;SDS011;23859;50.672;7.164;2022-12-04T07:45:51;24.48;;;11.65;;
38053;SDS011;23859;50.672;7.164;2022-12-04T07:48:17;24.23;;;12.45;;
38053;SDS011;23859;50.672;7.164;2022-12-04T07:50:43;24.98;;;11.95;;
38053;SDS011;23859;50.672;7.164;2022-12-04T07:53:09;23.77;;;12.35;;
38053;SDS011;23859;50.672;7.164;2022-12-04T07:55:35;22.08;;;11.38;;
38053;SDS011;23859;50.672;7.164;2022-12-04T07:58:01;22.48;;;10.65;;
38053;SDS011;23859;50.672;7.164;2022-12-04T08:00:27;22.73;;;12.63;;
38053;SDS011;23859;50.672;7.164;2022-12-04T08:02:54;27.45;;;14.18;;
38053;SDS011;23859;50.672;7.164;2022-12-04T08:05:20;24.77;;;13.32;;
38053;SDS011;23859;50.672;7.164;2022-12-04T08:07:46;23.80;;;11.82;;
38053;SDS011;23859;50.672;7.164;2022-12-04T08:10:12;24.77;;;12.32;;
38053;SDS011;23859;50.672;7.164;2022-12-04T08:12:39;27.02;;;13.07;;
38053;SDS011;23859;50.672;7.164;2022-12-04T08:15:05;25.02;;;12.98;;
38053;SDS011;23859;50.672;7.164;2022-12-04T08:17:31;32.53;;;14.13;;
38053;SDS011;23859;50.672;7.164;2022-12-04T08:19:57;26.50;;;13.68;;
38053;SDS011;23859;50.672;7.164;2022-12-04T08:22:23;23.95;;;11.10;;
38053;SDS011;23859;50.672;7.164;2022-12-04T08:24:50;24.05;;;13.07;;
38053;SDS011;23859;50.672;7.164;2022-12-04T08:27:16;25.88;;;14.40;;
38053;SDS011;23859;50.672;7.164;2022-12-04T08:29:42;22.55;;;12.13;;
38053;SDS011;23859;50.672;7.164;2022-12-04T08:32:08;27.38;;;13.93;;
38053;SDS011;23859;50.672;7.164;2022-12-04T08:34:34;25.48;;;12.02;;
38053;SDS011;23859;50.672;7.164;2022-12-04T08:37:00;26.10;;;13.82;;
38053;SDS011;23859;50.672;7.164;2022-12-04T08:39:26;23.55;;;12.07;;
38053;SDS011;23859;50.672;7.164;2022-12-04T08:41:52;26.10;;;13.52;;
38053;SDS011;23859;50.672;7.164;2022-12-04T08:44:18;23.80;;;12.27;;
38053;SDS011;23859;50.672;7.164;2022-12-04T08:46:45;26.30;;;12.43;;
38053;SDS011;23859;50.672;7.164;2022-12-04T08:49:11;28.92;;;14.57;;
38053;SDS011;23859;50.672;7.164;2022-12-04T08:51:37;27.23;;;14.48;;
38053;SDS011;23859;50.672;7.164;2022-12-04T08:54:05;30.75;;;14.10;;
38053;SDS011;23859;50.672;7.164;2022-12-04T08:56:33;25.33;;;13.60;;
38053;SDS011;23859;50.672;7.164;2022-12-04T08:59:01;29.33;;;15.05;;
38053;SDS011;23859;50.672;7.164;2022-12-04T09:01:28;27.00;;;13.55;;
38053;SDS011;23859;50.672;7.164;2022-12-04T09:03:54;29.40;;;12.73;;
38053;SDS011;23859;50.672;7.164;2022-12-04T09:06:21;25.63;;;12.68;;
38053;SDS011;23859;50.672;7.164;2022-12-04T09:08:50;22.80;;;11.38;;
38053;SDS011;23859;50.672;7.164;2022-12-04T09:11:20;24.65;;;12.27;;
38053;SDS011;23859;50.672;7.164;2022-12-04T09:13:47;28.00;;;13.05;;
38053;SDS011;23859;50.672;7.164;2022-12-04T09:16:15;22.73;;;12.13;;
38053;SDS011;23859;50.672;7.164;2022-12-04T09:18:44;23.08;;;11.88;;
38053;SDS011;23859;50.672;7.164;2022-12-04T09:21:12;26.33;;;12.48;;
38053;SDS011;23859;50.672;7.164;2022-12-04T09:23:39;24.55;;;12.48;;
38053;SDS011;23859;50.672;7.164;2022-12-04T09:26:14;25.40;;;13.13;;
38053;SDS011;23859;50.672;7.164;2022-12-04T09:28:48;21.35;;;11.13;;
38053;SDS011;23859;50.672;7.164;2022-12-04T09:31:15;20.90;;;11.75;;
38053;SDS011;23859;50.672;7.164;2022-12-04T09:33:43;21.42;;;12.68;;
38053;SDS011;23859;50.672;7.164;2022-12-04T09:36:09;21.73;;;12.20;;
38053;SDS011;23859;50.672;7.164;2022-12-04T09:38:40;25.67;;;12.27;;
38053;SDS011;23859;50.672;7.164;2022-12-04T09:41:15;25.45;;;12.82;;
38053;SDS011;23859;50.672;7.164;2022-12-04T09:47:08;26.40;;;13.95;;
38053;SDS011;23859;50.672;7.164;2022-12-04T09:49:25;25.55;;;12.75;;
38053;SDS011;23859;50.672;7.164;2022-12-04T09:52:01;22.20;;;11.98;;
38053;SDS011;23859;50.672;7.164;2022-12-04T09:54:35;24.63;;;12.65;;
38053;SDS011;23859;50.672;7.164;2022-12-04T09:57:09;25.45;;;12.65;;
38053;SDS011;23859;50.672;7.164;2022-12-04T09:59:43;23.83;;;12.27;;
38053;SDS011;23859;50.672;7.164;2022-12-04T10:04:57;21.13;;;11.88;;
38053;SDS011;23859;50.672;7.164;2022-12-04T10:07:39;22.35;;;12.63;;
38053;SDS011;23859;50.672;7.164;2022-12-04T10:10:37;26.63;;;12.30;;
38053;SDS011;23859;50.672;7.164;2022-12-04T10:13:11;22.90;;;12.35;;
38053;SDS011;23859;50.672;7.164;2022-12-04T10:16:18;21.65;;;12.13;;
38053;SDS011;23859;50.672;7.164;2022-12-04T10:18:57;26.08;;;12.65;;
38053;SDS011;23859;50.672;7.164;2022-12-04T10:21:49;24.83;;;11.80;;
38053;SDS011;23859;50.672;7.164;2022-12-04T10:24:35;23.08;;;11.65;;
38053;SDS011;23859;50.672;7.164;2022-12-04T10:27:20;24.50;;;12.00;;
38053;SDS011;23859;50.672;7.164;2022-12-04T10:30:30;22.65;;;11.25;;
38053;SDS011;23859;50.672;7.164;2022-12-04T10:33:31;19.95;;;10.95;;
38053;SDS011;23859;50.672;7.164;2022-12-04T10:35:49;25.50;;;12.13;;
38053;SDS011;23859;50.672;7.164;2022-12-04T10:38:34;19.83;;;10.23;;
38053;SDS011;23859;50.672;7.164;2022-12-04T10:41:28;25.67;;;11.80;;
38053;SDS011;23859;50.672;7.164;2022-12-04T10:44:13;19.50;;;11.18;;
38053;SDS011;23859;50.672;7.164;2022-12-04T10:46:40;24.00;;;11.63;;
38053;SDS011;23859;50.672;7.164;2022-12-04T10:49:12;22.77;;;12.25;;
38053;SDS011;23859;50.672;7.164;2022-12-04T10:51:45;25.25;;;11.98;;
38053;SDS011;23859;50.672;7.164;2022-12-04T10:54:15;26.85;;;11.80;;
38053;SDS011;23859;50.672;7.164;2022-12-04T10:56:58;23.00;;;12.00;;
38053;SDS011;23859;50.672;7.164;2022-12-04T10:59:26;21.85;;;12.05;;
38053;SDS011;23859;50.672;7.164;2022-12-04T11:04:26;22.88;;;11.93;;
38053;SDS011;23859;50.672;7.164;2022-12-04T11:07:00;25.95;;;13.02;;
38053;SDS011;23859;50.672;7.164;2022-12-04T11:09:27;24.75;;;13.75;;
38053;SDS011;23859;50.672;7.164;2022-12-04T11:12:03;30.15;;;13.77;;
38053;SDS011;23859;50.672;7.164;2022-12-04T11:14:43;22.08;;;11.00;;
38053;SDS011;23859;50.672;7.164;2022-12-04T11:17:16;18.88;;;10.95;;
38053;SDS011;23859;50.672;7.164;2022-12-04T11:22:17;19.35;;;10.27;;
38053;SDS011;23859;50.672;7.164;2022-12-04T11:24:48;21.85;;;11.10;;
38053;SDS011;23859;50.672;7.164;2022-12-04T11:27:20;20.52;;;10.65;;
38053;SDS011;23859;50.672;7.164;2022-12-04T11:29:51;23.90;;;11.30;;
38053;SDS011;23859;50.672;7.164;2022-12-04T11:32:24;20.50;;;10.32;;
38053;SDS011;23859;50.672;7.164;2022-12-04T11:34:54;21.60;;;10.88;;
38053;SDS011;23859;50.672;7.164;2022-12-04T11:37:32;20.92;;;11.05;;
38053;SDS011;23859;50.672;7.164;2022-12-04T11:39:59;24.50;;;10.65;;
38053;SDS011;23859;50.672;7.164;2022-12-04T11:42:30;22.25;;;10.50;;
38053;SDS011;23859;50.672;7.164;2022-12-04T11:44:58;20.17;;;10.20;;
38053;SDS011;23859;50.672;7.164;2022-12-04T11:47:41;24.55;;;11.27;;
38053;SDS011;23859;50.672;7.164;2022-12-04T11:50:38;22.27;;;10.63;;
38053;SDS011;23859;50.672;7.164;2022-12-04T11:53:15;17.15;;;10.45;;
38053;SDS011;23859;50.672;7.164;2022-12-04T12:01:11;17.17;;;9.25;;
38053;SDS011;23859;50.672;7.164;2022-12-04T12:04:07;21.20;;;9.10;;
38053;SDS011;23859;50.672;7.164;2022-12-04T12:10:09;14.68;;;8.18;;
38053;SDS011;23859;50.672;7.164;2022-12-04T12:24:02;15.63;;;8.75;;
38053;SDS011;23859;50.672;7.164;2022-12-04T12:26:59;19.55;;;10.15;;
38053;SDS011;23859;50.672;7.164;2022-12-04T12:29:57;20.83;;;10.18;;
38053;SDS011;23859;50.672;7.164;2022-12-04T12:38:13;19.63;;;8.85;;
38053;SDS011;23859;50.672;7.164;2022-12-04T12:40:52;17.63;;;8.60;;
38053;SDS011;23859;50.672;7.164;2022-12-04T12:43:29;16.08;;;8.48;;
38053;SDS011;23859;50.672;7.164;2022-12-04T12:46:11;17.45;;;9.55;;
38053;SDS011;23859;50.672;7.164;2022-12-04T12:48:54;20.67;;;10.15;;
38053;SDS011;23859;50.672;7.164;2022-12-04T12:51:49;22.88;;;10.35;;
38053;SDS011;23859;50.672;7.164;2022-12-04T12:54:54;24.75;;;10.70;;
38053;SDS011;23859;50.672;7.164;2022-12-04T13:00:15;18.65;;;8.82;;
38053;SDS011;23859;50.672;7.164;2022-12-04T13:06:00;20.05;;;10.20;;
38053;SDS011;23859;50.672;7.164;2022-12-04T13:08:33;23.58;;;10.77;;
38053;SDS011;23859;50.672;7.164;2022-12-04T13:11:15;22.42;;;10.32;;
38053;SDS011;23859;50.672;7.164;2022-12-04T13:13:48;20.23;;;10.45;;
38053;SDS011;23859;50.672;7.164;2022-12-04T13:16:23;20.58;;;9.90;;
38053;SDS011;23859;50.672;7.164;2022-12-04T13:18:58;20.98;;;11.20;;
38053;SDS011;23859;50.672;7.164;2022-12-04T13:27:04;22.90;;;11.18;;
38053;SDS011;23859;50.672;7.164;2022-12-04T13:32:28;25.27;;;10.43;;
38053;SDS011;23859;50.672;7.164;2022-12-04T13:36:17;21.63;;;11.30;;
38053;SDS011;23859;50.672;7.164;2022-12-04T13:41:10;24.63;;;11.25;;
38053;SDS011;23859;50.672;7.164;2022-12-04T13:49:34;23.30;;;11.88;;
38053;SDS011;23859;50.672;7.164;2022-12-04T13:51:55;24.35;;;13.13;;
38053;SDS011;23859;50.672;7.164;2022-12-04T13:54:32;25.80;;;11.80;;
38053;SDS011;23859;50.672;7.164;2022-12-04T13:59:40;26.55;;;12.90;;
38053;SDS011;23859;50.672;7.164;2022-12-04T14:02:19;29.95;;;15.30;;
38053;SDS011;23859;50.672;7.164;2022-12-04T14:07:35;32.38;;;14.93;;
38053;SDS011;23859;50.672;7.164;2022-12-04T14:10:04;28.85;;;13.98;;
38053;SDS011;23859;50.672;7.164;2022-12-04T14:12:35;26.33;;;13.88;;
38053;SDS011;23859;50.672;7.164;2022-12-04T14:15:19;24.27;;;12.20;;
38053;SDS011;23859;50.672;7.164;2022-12-04T14:18:05;25.88;;;12.95;;
38053;SDS011;23859;50.672;7.164;2022-12-04T14:23:32;26.48;;;12.20;;
38053;SDS011;23859;50.672;7.164;2022-12-04T14:26:00;42.90;;;15.48;;
38053;SDS011;23859;50.672;7.164;2022-12-04T14:30:57;27.50;;;12.00;;
38053;SDS011;23859;50.672;7.164;2022-12-04T14:33:43;27.58;;;12.52;;
38053;SDS011;23859;50.672;7.164;2022-12-04T14:36:26;24.67;;;12.40;;
38053;SDS011;23859;50.672;7.164;2022-12-04T14:39:03;28.30;;;13.20;;
38053;SDS011;23859;50.672;7.164;2022-12-04T14:41:41;29.92;;;14.77;;
38053;SDS011;23859;50.672;7.164;2022-12-04T14:44:14;26.08;;;13.32;;
38053;SDS011;23859;50.672;7.164;2022-12-04T14:46:52;30.38;;;13.48;;
38053;SDS011;23859;50.672;7.164;2022-12-04T14:52:23;28.48;;;14.52;;
38053;SDS011;23859;50.672;7.164;2022-12-04T14:55:16;28.23;;;13.60;;
38053;SDS011;23859;50.672;7.164;2022-12-04T14:57:58;24.98;;;12.27;;
38053;SDS011;23859;50.672;7.164;2022-12-04T15:00:50;29.58;;;14.25;;
38053;SDS011;23859;50.672;7.164;2022-12-04T15:03:17;45.42;;;14.60;;
38053;SDS011;23859;50.672;7.164;2022-12-04T15:05:44;28.38;;;14.00;;
38053;SDS011;23859;50.672;7.164;2022-12-04T15:08:10;27.08;;;13.15;;
38053;SDS011;23859;50.672;7.164;2022-12-04T15:10:37;31.73;;;14.30;;
38053;SDS011;23859;50.672;7.164;2022-12-04T15:13:26;29.33;;;13.85;;
38053;SDS011;23859;50.672;7.164;2022-12-04T15:15:57;34.50;;;16.13;;
38053;SDS011;23859;50.672;7.164;2022-12-04T15:18:32;33.35;;;14.90;;
38053;SDS011;23859;50.672;7.164;2022-12-04T15:20:58;28.15;;;15.02;;
38053;SDS011;23859;50.672;7.164;2022-12-04T15:23:28;28.67;;;14.57;;
38053;SDS011;23859;50.672;7.164;2022-12-04T15:25:58;28.60;;;14.95;;
38053;SDS011;23859;50.672;7.164;2022-12-04T15:31:05;30.58;;;15.40;;
38053;SDS011;23859;50.672;7.164;2022-12-04T15:34:08;33.88;;;16.30;;
38053;SDS011;23859;50.672;7.164;2022-12-04T15:36:46;35.08;;;16.10;;
38053;SDS011;23859;50.672;7.164;2022-12-04T15:39:25;36.45;;;16.42;;
38053;SDS011;23859;50.672;7.164;2022-12-04T15:44:52;30.95;;;16.58;;
38053;SDS011;23859;50.672;7.164;2022-12-04T15:47:25;33.05;;;15.93;;
38053;SDS011;23859;50.672;7.164;2022-12-04T15:50:08;32.90;;;16.13;;
38053;SDS011;23859;50.672;7.164;2022-12-04T15:52:37;33.45;;;15.32;;
38053;SDS011;23859;50.672;7.164;2022-12-04T15:55:11;34.85;;;17.08;;
38053;SDS011;23859;50.672;7.164;2022-12-04T15:57:42;33.80;;;16.55;;
38053;SDS011;23859;50.672;7.164;2022-12-04T16:00:57;35.15;;;17.08;;
38053;SDS011;23859;50.672;7.164;2022-12-04T16:03:06;34.42;;;15.75;;
38053;SDS011;23859;50.672;7.164;2022-12-04T16:06:12;34.58;;;15.32;;
38053;SDS011;23859;50.672;7.164;2022-12-04T16:08:55;33.10;;;16.20;;
38053;SDS011;23859;50.672;7.164;2022-12-04T16:11:27;34.55;;;16.90;;
38053;SDS011;23859;50.672;7.164;2022-12-04T16:14:13;38.67;;;17.98;;
38053;SDS011;23859;50.672;7.164;2022-12-04T16:16:42;31.83;;;15.15;;
38053;SDS011;23859;50.672;7.164;2022-12-04T16:19:26;37.72;;;18.02;;
38053;SDS011;23859;50.672;7.164;2022-12-04T16:22:01;34.60;;;16.23;;
38053;SDS011;23859;50.672;7.164;2022-12-04T16:24:33;34.47;;;16.15;;
38053;SDS011;23859;50.672;7.164;2022-12-04T16:26:59;38.00;;;18.00;;
38053;SDS011;23859;50.672;7.164;2022-12-04T16:29:26;35.33;;;16.17;;
38053;SDS011;23859;50.672;7.164;2022-12-04T16:31:54;38.65;;;18.40;;
38053;SDS011;23859;50.672;7.164;2022-12-04T16:34:20;34.95;;;17.10;;
38053;SDS011;23859;50.672;7.164;2022-12-04T16:36:46;36.13;;;16.52;;
38053;SDS011;23859;50.672;7.164;2022-12-04T16:39:12;34.83;;;17.35;;
38053;SDS011;23859;50.672;7.164;2022-12-04T16:41:38;38.65;;;17.73;;
38053;SDS011;23859;50.672;7.164;2022-12-04T16:44:08;36.88;;;17.42;;
38053;SDS011;23859;50.672;7.164;2022-12-04T16:46:38;36.67;;;16.70;;
38053;SDS011;23859;50.672;7.164;2022-12-04T16:49:04;35.92;;;16.90;;
38053;SDS011;23859;50.672;7.164;2022-12-04T16:51:30;39.60;;;17.27;;